sensor_id;sensor_type;location;lat;lon;timestamp;P1;durP1;ratioP1;P2;durP2;ratioP2
31424;SDS011;18054;51.572;7.372;2024-01-15T00:02:14;66.65;;;28.38;;
31424;SDS011;18054;51.572;7.372;2024-01-15T00:04:43;65.85;;;25.83;;
31424;SDS011;18054;51.572;7.372;2024-01-15T00:07:11;76.07;;;32.63;;
31424;SDS011;18054;51.572;7.372;2024-01-15T00:12:06;72.22;;;30.35;;
31424;SDS011;18054;51.572;7.372;2024-01-15T00:14:34;81.30;;;31.85;;
31424;SDS011;18054;51.572;7.372;2024-01-15T00:19:29;72.60;;;29.55;;
31424;SDS011;18054;51.572;7.372;2024-01-15T00:22:00;92.05;;;33.78;;
31424;SDS011;18054;51.572;7.372;2024-01-15T00:24:27;70.35;;;29.58;;
31424;SDS011;18054;51.572;7.372;2024-01-15T00:26:55;79.50;;;31.60;;
31424;SDS011;18054;51.572;7.372;2024-01-15T00:31:50;65.30;;;28.30;;
31424;SDS011;18054;51.572;7.372;2024-01-15T00:34:18;87.97;;;37.58;;
31424;SDS011;18054;51.572;7.372;2024-01-15T00:36:46;86.53;;;35.63;;
31424;SDS011;18054;51.572;7.372;2024-01-15T00:39:15;84.90;;;33.55;;
31424;SDS011;18054;51.572;7.372;2024-01-15T00:41:43;81.03;;;33.47;;
31424;SDS011;18054;51.572;7.372;2024-01-15T00:44:10;76.30;;;29.63;;
31424;SDS011;18054;51.572;7.372;2024-01-15T00:46:42;84.90;;;33.45;;
31424;SDS011;18054;51.572;7.372;2024-01-15T00:49:10;87.65;;;34.70;;
31424;SDS011;18054;51.572;7.372;2024-01-15T00:51:38;87.22;;;33.95;;
31424;SDS011;18054;51.572;7.372;2024-01-15T00:54:06;87.28;;;35.00;;
31424;SDS011;18054;51.572;7.372;2024-01-15T00:56:36;76.00;;;29.77;;
31424;SDS011;18054;51.572;7.372;2024-01-15T00:59:04;91.20;;;34.35;;
31424;SDS011;18054;51.572;7.372;2024-01-15T01:02:34;91.32;;;36.08;;
31424;SDS011;18054;51.572;7.372;2024-01-15T01:05:02;90.03;;;34.55;;
31424;SDS011;18054;51.572;7.372;2024-01-15T01:07:30;101.40;;;37.78;;
31424;SDS011;18054;51.572;7.372;2024-01-15T01:09:58;91.53;;;34.50;;
31424;SDS011;18054;51.572;7.372;2024-01-15T01:14:53;92.78;;;34.55;;
31424;SDS011;18054;51.572;7.372;2024-01-15T01:17:21;83.50;;;33.00;;
31424;SDS011;18054;51.572;7.372;2024-01-15T01:19:50;83.28;;;32.15;;
31424;SDS011;18054;51.572;7.372;2024-01-15T01:22:18;87.35;;;34.20;;
31424;SDS011;18054;51.572;7.372;2024-01-15T01:24:45;88.93;;;36.20;;
31424;SDS011;18054;51.572;7.372;2024-01-15T01:27:13;78.53;;;32.30;;
31424;SDS011;18054;51.572;7.372;2024-01-15T01:29:40;86.15;;;34.10;;
31424;SDS011;18054;51.572;7.372;2024-01-15T01:32:08;89.45;;;33.92;;
31424;SDS011;18054;51.572;7.372;2024-01-15T01:34:39;90.32;;;34.30;;
31424;SDS011;18054;51.572;7.372;2024-01-15T01:37:09;83.07;;;34.05;;
31424;SDS011;18054;51.572;7.372;2024-01-15T01:39:39;92.10;;;32.47;;
31424;SDS011;18054;51.572;7.372;2024-01-15T01:42:06;77.35;;;29.25;;
31424;SDS011;18054;51.572;7.372;2024-01-15T01:44:34;75.70;;;31.60;;
31424;SDS011;18054;51.572;7.372;2024-01-15T01:47:01;84.97;;;31.65;;
31424;SDS011;18054;51.572;7.372;2024-01-15T01:54:26;62.67;;;25.15;;
31424;SDS011;18054;51.572;7.372;2024-01-15T01:56:54;59.92;;;24.23;;
31424;SDS011;18054;51.572;7.372;2024-01-15T01:59:22;73.55;;;27.48;;
31424;SDS011;18054;51.572;7.372;2024-01-15T02:01:50;76.88;;;29.85;;
31424;SDS011;18054;51.572;7.372;2024-01-15T02:04:18;69.15;;;27.33;;
31424;SDS011;18054;51.572;7.372;2024-01-15T02:06:47;48.88;;;20.98;;
31424;SDS011;18054;51.572;7.372;2024-01-15T02:09:15;66.90;;;25.77;;
31424;SDS011;18054;51.572;7.372;2024-01-15T02:11:44;62.45;;;26.65;;
31424;SDS011;18054;51.572;7.372;2024-01-15T02:14:13;62.25;;;25.90;;
31424;SDS011;18054;51.572;7.372;2024-01-15T02:16:41;77.68;;;28.50;;
31424;SDS011;18054;51.572;7.372;2024-01-15T02:19:14;57.58;;;25.42;;
31424;SDS011;18054;51.572;7.372;2024-01-15T02:21:41;69.50;;;27.63;;
31424;SDS011;18054;51.572;7.372;2024-01-15T02:24:10;72.32;;;27.77;;
31424;SDS011;18054;51.572;7.372;2024-01-15T02:26:38;65.45;;;26.85;;
31424;SDS011;18054;51.572;7.372;2024-01-15T02:29:06;60.97;;;26.52;;
31424;SDS011;18054;51.572;7.372;2024-01-15T02:31:34;53.75;;;23.90;;
31424;SDS011;18054;51.572;7.372;2024-01-15T02:34:02;51.67;;;23.02;;
31424;SDS011;18054;51.572;7.372;2024-01-15T02:36:30;67.90;;;28.33;;
31424;SDS011;18054;51.572;7.372;2024-01-15T02:38:58;58.63;;;26.20;;
31424;SDS011;18054;51.572;7.372;2024-01-15T02:41:27;56.28;;;26.48;;
31424;SDS011;18054;51.572;7.372;2024-01-15T02:43:54;56.55;;;25.75;;
31424;SDS011;18054;51.572;7.372;2024-01-15T02:46:22;64.20;;;23.30;;
31424;SDS011;18054;51.572;7.372;2024-01-15T02:48:49;36.88;;;18.00;;
31424;SDS011;18054;51.572;7.372;2024-01-15T02:53:44;58.00;;;23.63;;
31424;SDS011;18054;51.572;7.372;2024-01-15T02:56:12;52.50;;;22.02;;
31424;SDS011;18054;51.572;7.372;2024-01-15T02:58:41;52.28;;;24.60;;
31424;SDS011;18054;51.572;7.372;2024-01-15T03:01:08;57.03;;;23.75;;
31424;SDS011;18054;51.572;7.372;2024-01-15T03:06:04;51.72;;;22.73;;
31424;SDS011;18054;51.572;7.372;2024-01-15T03:08:31;48.42;;;20.90;;
31424;SDS011;18054;51.572;7.372;2024-01-15T03:11:01;56.58;;;25.52;;
31424;SDS011;18054;51.572;7.372;2024-01-15T03:13:29;59.65;;;23.08;;
31424;SDS011;18054;51.572;7.372;2024-01-15T03:15:57;72.47;;;25.10;;
31424;SDS011;18054;51.572;7.372;2024-01-15T03:18:25;54.90;;;24.83;;
31424;SDS011;18054;51.572;7.372;2024-01-15T03:20:53;72.28;;;25.25;;
31424;SDS011;18054;51.572;7.372;2024-01-15T03:23:20;57.65;;;22.58;;
31424;SDS011;18054;51.572;7.372;2024-01-15T03:25:48;49.22;;;21.67;;
31424;SDS011;18054;51.572;7.372;2024-01-15T03:28:15;46.40;;;20.63;;
31424;SDS011;18054;51.572;7.372;2024-01-15T03:30:43;59.22;;;25.80;;
31424;SDS011;18054;51.572;7.372;2024-01-15T03:33:11;56.92;;;22.77;;
31424;SDS011;18054;51.572;7.372;2024-01-15T03:35:39;59.28;;;22.85;;
31424;SDS011;18054;51.572;7.372;2024-01-15T03:38:07;49.30;;;22.90;;
31424;SDS011;18054;51.572;7.372;2024-01-15T03:40:34;57.03;;;23.83;;
31424;SDS011;18054;51.572;7.372;2024-01-15T03:43:02;63.33;;;24.25;;
31424;SDS011;18054;51.572;7.372;2024-01-15T03:45:29;46.00;;;19.23;;
31424;SDS011;18054;51.572;7.372;2024-01-15T03:47:57;50.45;;;23.67;;
31424;SDS011;18054;51.572;7.372;2024-01-15T03:50:26;54.53;;;23.83;;
31424;SDS011;18054;51.572;7.372;2024-01-15T03:52:53;61.08;;;25.23;;
31424;SDS011;18054;51.572;7.372;2024-01-15T03:55:21;59.28;;;21.70;;
31424;SDS011;18054;51.572;7.372;2024-01-15T03:57:49;52.47;;;21.55;;
31424;SDS011;18054;51.572;7.372;2024-01-15T04:00:16;49.17;;;22.10;;
31424;SDS011;18054;51.572;7.372;2024-01-15T04:05:11;51.25;;;20.48;;
31424;SDS011;18054;51.572;7.372;2024-01-15T04:07:40;45.35;;;20.05;;
31424;SDS011;18054;51.572;7.372;2024-01-15T04:10:08;43.38;;;18.27;;
31424;SDS011;18054;51.572;7.372;2024-01-15T04:15:04;47.97;;;19.83;;
31424;SDS011;18054;51.572;7.372;2024-01-15T04:17:32;51.95;;;19.75;;
31424;SDS011;18054;51.572;7.372;2024-01-15T04:19:59;42.38;;;17.80;;
31424;SDS011;18054;51.572;7.372;2024-01-15T04:24:56;40.65;;;16.73;;
31424;SDS011;18054;51.572;7.372;2024-01-15T04:27:24;43.63;;;17.05;;
31424;SDS011;18054;51.572;7.372;2024-01-15T04:29:51;48.55;;;17.58;;
31424;SDS011;18054;51.572;7.372;2024-01-15T04:32:19;34.00;;;17.13;;
31424;SDS011;18054;51.572;7.372;2024-01-15T04:34:47;39.65;;;16.17;;
31424;SDS011;18054;51.572;7.372;2024-01-15T04:37:14;35.92;;;16.85;;
31424;SDS011;18054;51.572;7.372;2024-01-15T04:39:42;31.90;;;16.10;;
31424;SDS011;18054;51.572;7.372;2024-01-15T04:44:38;38.83;;;14.80;;
31424;SDS011;18054;51.572;7.372;2024-01-15T04:47:06;34.70;;;17.35;;
31424;SDS011;18054;51.572;7.372;2024-01-15T04:49:34;34.47;;;16.15;;
31424;SDS011;18054;51.572;7.372;2024-01-15T04:52:02;39.22;;;15.77;;
31424;SDS011;18054;51.572;7.372;2024-01-15T04:59:24;27.83;;;15.02;;
31424;SDS011;18054;51.572;7.372;2024-01-15T05:01:53;40.53;;;16.38;;
31424;SDS011;18054;51.572;7.372;2024-01-15T05:04:21;44.25;;;15.65;;
31424;SDS011;18054;51.572;7.372;2024-01-15T05:06:48;32.22;;;11.82;;
31424;SDS011;18054;51.572;7.372;2024-01-15T05:09:16;44.10;;;14.93;;
31424;SDS011;18054;51.572;7.372;2024-01-15T05:11:44;41.75;;;16.60;;
31424;SDS011;18054;51.572;7.372;2024-01-15T05:14:11;36.40;;;14.98;;
31424;SDS011;18054;51.572;7.372;2024-01-15T05:21:35;36.08;;;16.75;;
31424;SDS011;18054;51.572;7.372;2024-01-15T05:24:03;29.42;;;13.85;;
31424;SDS011;18054;51.572;7.372;2024-01-15T05:26:31;40.72;;;17.63;;
31424;SDS011;18054;51.572;7.372;2024-01-15T05:29:01;41.33;;;18.67;;
31424;SDS011;18054;51.572;7.372;2024-01-15T05:31:29;48.53;;;17.10;;
31424;SDS011;18054;51.572;7.372;2024-01-15T05:33:56;37.95;;;18.20;;
31424;SDS011;18054;51.572;7.372;2024-01-15T05:36:24;42.05;;;17.92;;
31424;SDS011;18054;51.572;7.372;2024-01-15T05:38:53;36.28;;;17.52;;
31424;SDS011;18054;51.572;7.372;2024-01-15T05:41:20;39.05;;;18.83;;
31424;SDS011;18054;51.572;7.372;2024-01-15T05:43:48;46.17;;;17.77;;
31424;SDS011;18054;51.572;7.372;2024-01-15T05:46:15;32.03;;;14.50;;
31424;SDS011;18054;51.572;7.372;2024-01-15T05:48:43;38.30;;;17.90;;
31424;SDS011;18054;51.572;7.372;2024-01-15T05:53:41;33.13;;;14.30;;
31424;SDS011;18054;51.572;7.372;2024-01-15T05:56:11;38.80;;;18.02;;
31424;SDS011;18054;51.572;7.372;2024-01-15T05:58:39;40.47;;;18.85;;
31424;SDS011;18054;51.572;7.372;2024-01-15T06:01:06;36.03;;;17.33;;
31424;SDS011;18054;51.572;7.372;2024-01-15T06:08:29;41.35;;;18.05;;
31424;SDS011;18054;51.572;7.372;2024-01-15T06:10:56;36.08;;;16.48;;
31424;SDS011;18054;51.572;7.372;2024-01-15T06:13:29;34.25;;;15.00;;
31424;SDS011;18054;51.572;7.372;2024-01-15T06:15:56;35.00;;;16.17;;
31424;SDS011;18054;51.572;7.372;2024-01-15T06:18:24;32.88;;;17.08;;
31424;SDS011;18054;51.572;7.372;2024-01-15T06:20:52;33.03;;;16.05;;
31424;SDS011;18054;51.572;7.372;2024-01-15T06:23:19;32.70;;;15.45;;
31424;SDS011;18054;51.572;7.372;2024-01-15T06:25:47;35.45;;;17.50;;
31424;SDS011;18054;51.572;7.372;2024-01-15T06:28:15;42.60;;;17.23;;
31424;SDS011;18054;51.572;7.372;2024-01-15T06:30:44;33.72;;;15.30;;
31424;SDS011;18054;51.572;7.372;2024-01-15T06:33:11;38.28;;;18.13;;
31424;SDS011;18054;51.572;7.372;2024-01-15T06:35:39;25.92;;;10.20;;
31424;SDS011;18054;51.572;7.372;2024-01-15T06:38:07;27.25;;;13.20;;
31424;SDS011;18054;51.572;7.372;2024-01-15T06:40:35;34.95;;;16.33;;
31424;SDS011;18054;51.572;7.372;2024-01-15T06:43:03;26.30;;;15.05;;
31424;SDS011;18054;51.572;7.372;2024-01-15T06:47:59;31.45;;;14.77;;
31424;SDS011;18054;51.572;7.372;2024-01-15T06:50:27;41.00;;;17.25;;
31424;SDS011;18054;51.572;7.372;2024-01-15T06:52:54;49.80;;;17.80;;
31424;SDS011;18054;51.572;7.372;2024-01-15T06:55:22;32.10;;;17.08;;
31424;SDS011;18054;51.572;7.372;2024-01-15T06:57:50;39.50;;;17.55;;
31424;SDS011;18054;51.572;7.372;2024-01-15T07:05:14;34.10;;;17.52;;
31424;SDS011;18054;51.572;7.372;2024-01-15T07:07:42;34.58;;;17.80;;
31424;SDS011;18054;51.572;7.372;2024-01-15T07:10:10;35.47;;;14.98;;
31424;SDS011;18054;51.572;7.372;2024-01-15T07:12:37;33.03;;;15.85;;
31424;SDS011;18054;51.572;7.372;2024-01-15T07:15:05;34.78;;;15.70;;
31424;SDS011;18054;51.572;7.372;2024-01-15T07:17:34;34.20;;;19.08;;
31424;SDS011;18054;51.572;7.372;2024-01-15T07:22:31;37.28;;;17.98;;
31424;SDS011;18054;51.572;7.372;2024-01-15T07:24:58;43.78;;;18.02;;
31424;SDS011;18054;51.572;7.372;2024-01-15T07:27:26;30.00;;;17.45;;
31424;SDS011;18054;51.572;7.372;2024-01-15T07:29:54;40.42;;;18.08;;
31424;SDS011;18054;51.572;7.372;2024-01-15T07:32:26;33.63;;;17.67;;
31424;SDS011;18054;51.572;7.372;2024-01-15T07:34:53;38.38;;;18.83;;
31424;SDS011;18054;51.572;7.372;2024-01-15T07:37:21;36.05;;;18.58;;
31424;SDS011;18054;51.572;7.372;2024-01-15T07:39:51;38.72;;;18.48;;
31424;SDS011;18054;51.572;7.372;2024-01-15T07:42:18;36.88;;;18.48;;
31424;SDS011;18054;51.572;7.372;2024-01-15T07:47:14;34.30;;;18.17;;
31424;SDS011;18054;51.572;7.372;2024-01-15T07:49:42;33.97;;;16.92;;
31424;SDS011;18054;51.572;7.372;2024-01-15T07:54:39;15.68;;;8.13;;
31424;SDS011;18054;51.572;7.372;2024-01-15T07:57:08;22.95;;;12.45;;
31424;SDS011;18054;51.572;7.372;2024-01-15T07:59:36;26.85;;;13.32;;
31424;SDS011;18054;51.572;7.372;2024-01-15T08:02:04;22.52;;;12.68;;
31424;SDS011;18054;51.572;7.372;2024-01-15T08:04:32;22.05;;;11.38;;
31424;SDS011;18054;51.572;7.372;2024-01-15T08:07:00;29.05;;;14.98;;
31424;SDS011;18054;51.572;7.372;2024-01-15T08:09:29;31.17;;;13.93;;
31424;SDS011;18054;51.572;7.372;2024-01-15T08:14:26;30.98;;;12.27;;
31424;SDS011;18054;51.572;7.372;2024-01-15T08:16:54;26.60;;;10.05;;
31424;SDS011;18054;51.572;7.372;2024-01-15T08:19:21;24.05;;;10.63;;
31424;SDS011;18054;51.572;7.372;2024-01-15T08:21:50;23.70;;;10.68;;
31424;SDS011;18054;51.572;7.372;2024-01-15T08:24:18;24.40;;;11.82;;
31424;SDS011;18054;51.572;7.372;2024-01-15T08:26:46;20.15;;;10.70;;
31424;SDS011;18054;51.572;7.372;2024-01-15T08:29:14;30.25;;;12.23;;
31424;SDS011;18054;51.572;7.372;2024-01-15T08:31:44;25.23;;;13.32;;
31424;SDS011;18054;51.572;7.372;2024-01-15T08:34:12;30.35;;;14.98;;
31424;SDS011;18054;51.572;7.372;2024-01-15T08:36:41;28.13;;;13.57;;
31424;SDS011;18054;51.572;7.372;2024-01-15T08:39:09;26.77;;;13.77;;
31424;SDS011;18054;51.572;7.372;2024-01-15T08:44:04;31.33;;;13.75;;
31424;SDS011;18054;51.572;7.372;2024-01-15T08:49:01;24.13;;;13.85;;
31424;SDS011;18054;51.572;7.372;2024-01-15T08:51:30;34.63;;;15.73;;
31424;SDS011;18054;51.572;7.372;2024-01-15T08:53:58;28.08;;;13.77;;
31424;SDS011;18054;51.572;7.372;2024-01-15T08:56:26;22.45;;;11.80;;
31424;SDS011;18054;51.572;7.372;2024-01-15T08:58:54;24.35;;;14.02;;
31424;SDS011;18054;51.572;7.372;2024-01-15T09:01:22;23.58;;;12.10;;
31424;SDS011;18054;51.572;7.372;2024-01-15T09:06:19;28.65;;;13.98;;
31424;SDS011;18054;51.572;7.372;2024-01-15T09:08:47;27.42;;;14.57;;
31424;SDS011;18054;51.572;7.372;2024-01-15T09:11:14;27.23;;;14.35;;
31424;SDS011;18054;51.572;7.372;2024-01-15T09:13:42;26.60;;;14.35;;
31424;SDS011;18054;51.572;7.372;2024-01-15T09:16:09;29.80;;;15.70;;
31424;SDS011;18054;51.572;7.372;2024-01-15T09:28:28;24.67;;;13.15;;
31424;SDS011;18054;51.572;7.372;2024-01-15T09:30:56;29.48;;;14.77;;
31424;SDS011;18054;51.572;7.372;2024-01-15T09:33:24;27.85;;;15.52;;
31424;SDS011;18054;51.572;7.372;2024-01-15T09:35:52;33.80;;;17.52;;
31424;SDS011;18054;51.572;7.372;2024-01-15T09:38:20;23.10;;;12.88;;
31424;SDS011;18054;51.572;7.372;2024-01-15T09:40:48;30.67;;;17.95;;
31424;SDS011;18054;51.572;7.372;2024-01-15T09:45:45;24.73;;;15.07;;
31424;SDS011;18054;51.572;7.372;2024-01-15T09:48:13;33.75;;;15.30;;
31424;SDS011;18054;51.572;7.372;2024-01-15T09:53:08;21.52;;;12.10;;
31424;SDS011;18054;51.572;7.372;2024-01-15T09:55:36;24.70;;;10.93;;
31424;SDS011;18054;51.572;7.372;2024-01-15T09:58:04;19.00;;;10.45;;
31424;SDS011;18054;51.572;7.372;2024-01-15T10:00:32;19.08;;;10.45;;
31424;SDS011;18054;51.572;7.372;2024-01-15T10:03:04;19.02;;;10.18;;
31424;SDS011;18054;51.572;7.372;2024-01-15T10:05:33;13.65;;;7.97;;
31424;SDS011;18054;51.572;7.372;2024-01-15T10:08:01;14.60;;;7.90;;
31424;SDS011;18054;51.572;7.372;2024-01-15T10:10:30;25.52;;;8.55;;
31424;SDS011;18054;51.572;7.372;2024-01-15T10:12:58;13.57;;;8.45;;
31424;SDS011;18054;51.572;7.372;2024-01-15T10:15:26;14.18;;;8.30;;
31424;SDS011;18054;51.572;7.372;2024-01-15T10:17:54;13.82;;;8.23;;
31424;SDS011;18054;51.572;7.372;2024-01-15T10:22:51;13.80;;;8.20;;
31424;SDS011;18054;51.572;7.372;2024-01-15T10:25:18;23.23;;;9.95;;
31424;SDS011;18054;51.572;7.372;2024-01-15T10:27:59;20.63;;;9.75;;
31424;SDS011;18054;51.572;7.372;2024-01-15T10:30:27;21.90;;;10.82;;
31424;SDS011;18054;51.572;7.372;2024-01-15T10:45:15;34.63;;;12.05;;
31424;SDS011;18054;51.572;7.372;2024-01-15T10:47:43;31.75;;;12.73;;
31424;SDS011;18054;51.572;7.372;2024-01-15T10:50:11;29.48;;;12.98;;
31424;SDS011;18054;51.572;7.372;2024-01-15T10:55:09;27.55;;;12.70;;
31424;SDS011;18054;51.572;7.372;2024-01-15T10:57:45;22.95;;;12.77;;
31424;SDS011;18054;51.572;7.372;2024-01-15T11:00:13;27.38;;;13.45;;
31424;SDS011;18054;51.572;7.372;2024-01-15T11:02:43;28.02;;;13.50;;
31424;SDS011;18054;51.572;7.372;2024-01-15T11:05:11;35.35;;;15.18;;
31424;SDS011;18054;51.572;7.372;2024-01-15T11:07:39;30.52;;;14.35;;
31424;SDS011;18054;51.572;7.372;2024-01-15T11:10:08;22.17;;;12.88;;
31424;SDS011;18054;51.572;7.372;2024-01-15T11:12:36;27.38;;;14.27;;
31424;SDS011;18054;51.572;7.372;2024-01-15T11:15:08;33.38;;;13.90;;
31424;SDS011;18054;51.572;7.372;2024-01-15T11:20:24;24.63;;;13.00;;
31424;SDS011;18054;51.572;7.372;2024-01-15T11:22:51;13.35;;;8.55;;
31424;SDS011;18054;51.572;7.372;2024-01-15T11:25:19;24.52;;;10.98;;
31424;SDS011;18054;51.572;7.372;2024-01-15T11:30:18;24.52;;;9.95;;
31424;SDS011;18054;51.572;7.372;2024-01-15T11:32:46;18.63;;;9.05;;
31424;SDS011;18054;51.572;7.372;2024-01-15T11:35:14;29.98;;;9.88;;
31424;SDS011;18054;51.572;7.372;2024-01-15T11:37:59;17.40;;;8.35;;
31424;SDS011;18054;51.572;7.372;2024-01-15T11:40:38;13.90;;;6.90;;
31424;SDS011;18054;51.572;7.372;2024-01-15T11:43:06;12.38;;;6.20;;
31424;SDS011;18054;51.572;7.372;2024-01-15T11:45:36;12.00;;;5.57;;
31424;SDS011;18054;51.572;7.372;2024-01-15T11:48:09;13.07;;;6.22;;
31424;SDS011;18054;51.572;7.372;2024-01-15T11:50:39;12.57;;;5.93;;
31424;SDS011;18054;51.572;7.372;2024-01-15T11:53:10;18.15;;;6.10;;
31424;SDS011;18054;51.572;7.372;2024-01-15T11:55:41;10.63;;;5.25;;
31424;SDS011;18054;51.572;7.372;2024-01-15T11:58:11;7.68;;;4.68;;
31424;SDS011;18054;51.572;7.372;2024-01-15T12:00:39;8.40;;;4.05;;
31424;SDS011;18054;51.572;7.372;2024-01-15T12:03:08;12.52;;;4.20;;
31424;SDS011;18054;51.572;7.372;2024-01-15T12:05:36;7.82;;;3.28;;
31424;SDS011;18054;51.572;7.372;2024-01-15T12:08:04;9.52;;;3.15;;
31424;SDS011;18054;51.572;7.372;2024-01-15T12:10:38;8.32;;;3.17;;
31424;SDS011;18054;51.572;7.372;2024-01-15T12:13:09;9.52;;;3.13;;
31424;SDS011;18054;51.572;7.372;2024-01-15T12:15:37;15.32;;;4.25;;
31424;SDS011;18054;51.572;7.372;2024-01-15T12:18:08;17.23;;;5.10;;
31424;SDS011;18054;51.572;7.372;2024-01-15T12:20:37;10.93;;;5.32;;
31424;SDS011;18054;51.572;7.372;2024-01-15T12:23:05;10.73;;;5.53;;
31424;SDS011;18054;51.572;7.372;2024-01-15T12:25:35;18.55;;;7.55;;
31424;SDS011;18054;51.572;7.372;2024-01-15T12:28:05;15.98;;;7.15;;
31424;SDS011;18054;51.572;7.372;2024-01-15T12:30:33;12.55;;;6.07;;
31424;SDS011;18054;51.572;7.372;2024-01-15T12:33:02;19.98;;;8.27;;
31424;SDS011;18054;51.572;7.372;2024-01-15T12:35:31;21.27;;;9.05;;
31424;SDS011;18054;51.572;7.372;2024-01-15T12:37:59;18.85;;;8.60;;
31424;SDS011;18054;51.572;7.372;2024-01-15T12:40:28;15.82;;;9.00;;
31424;SDS011;18054;51.572;7.372;2024-01-15T12:47:53;21.40;;;9.75;;
31424;SDS011;18054;51.572;7.372;2024-01-15T12:50:25;19.45;;;8.73;;
31424;SDS011;18054;51.572;7.372;2024-01-15T12:52:53;17.00;;;8.60;;
31424;SDS011;18054;51.572;7.372;2024-01-15T12:55:23;16.25;;;7.80;;
31424;SDS011;18054;51.572;7.372;2024-01-15T12:57:51;12.88;;;5.63;;
31424;SDS011;18054;51.572;7.372;2024-01-15T13:00:21;15.68;;;5.05;;
31424;SDS011;18054;51.572;7.372;2024-01-15T13:05:18;17.60;;;5.30;;
31424;SDS011;18054;51.572;7.372;2024-01-15T13:07:47;7.25;;;4.07;;
31424;SDS011;18054;51.572;7.372;2024-01-15T13:12:43;7.10;;;3.30;;
31424;SDS011;18054;51.572;7.372;2024-01-15T13:15:10;7.63;;;2.08;;
31424;SDS011;18054;51.572;7.372;2024-01-15T13:17:41;10.75;;;3.65;;
31424;SDS011;18054;51.572;7.372;2024-01-15T13:20:10;7.03;;;2.88;;
31424;SDS011;18054;51.572;7.372;2024-01-15T13:22:40;11.00;;;3.45;;
31424;SDS011;18054;51.572;7.372;2024-01-15T13:25:11;9.00;;;3.22;;
31424;SDS011;18054;51.572;7.372;2024-01-15T13:30:08;9.20;;;2.15;;
31424;SDS011;18054;51.572;7.372;2024-01-15T13:32:37;7.53;;;2.75;;
31424;SDS011;18054;51.572;7.372;2024-01-15T13:37:36;6.72;;;2.40;;
31424;SDS011;18054;51.572;7.372;2024-01-15T13:40:06;15.43;;;3.17;;
31424;SDS011;18054;51.572;7.372;2024-01-15T13:42:36;6.53;;;2.80;;
31424;SDS011;18054;51.572;7.372;2024-01-15T13:45:05;5.53;;;2.55;;
31424;SDS011;18054;51.572;7.372;2024-01-15T13:47:34;9.82;;;2.92;;
31424;SDS011;18054;51.572;7.372;2024-01-15T13:50:02;3.97;;;2.05;;
31424;SDS011;18054;51.572;7.372;2024-01-15T13:54:57;5.40;;;1.70;;
31424;SDS011;18054;51.572;7.372;2024-01-15T14:02:23;5.35;;;2.20;;
31424;SDS011;18054;51.572;7.372;2024-01-15T14:04:52;6.15;;;2.40;;
31424;SDS011;18054;51.572;7.372;2024-01-15T14:07:20;10.85;;;2.70;;
31424;SDS011;18054;51.572;7.372;2024-01-15T14:09:48;8.30;;;2.38;;
31424;SDS011;18054;51.572;7.372;2024-01-15T14:12:16;10.40;;;1.95;;
31424;SDS011;18054;51.572;7.372;2024-01-15T14:14:44;7.80;;;2.40;;
31424;SDS011;18054;51.572;7.372;2024-01-15T14:17:12;10.25;;;2.40;;
31424;SDS011;18054;51.572;7.372;2024-01-15T14:22:09;10.85;;;2.63;;
31424;SDS011;18054;51.572;7.372;2024-01-15T14:24:37;4.05;;;1.60;;
31424;SDS011;18054;51.572;7.372;2024-01-15T14:27:05;11.48;;;2.30;;
31424;SDS011;18054;51.572;7.372;2024-01-15T14:29:33;5.45;;;1.90;;
31424;SDS011;18054;51.572;7.372;2024-01-15T14:32:02;6.72;;;2.15;;
31424;SDS011;18054;51.572;7.372;2024-01-15T14:34:30;7.85;;;2.30;;
31424;SDS011;18054;51.572;7.372;2024-01-15T14:36:58;11.90;;;2.40;;
31424;SDS011;18054;51.572;7.372;2024-01-15T14:44:22;11.10;;;2.28;;
31424;SDS011;18054;51.572;7.372;2024-01-15T14:46:50;10.77;;;2.47;;
31424;SDS011;18054;51.572;7.372;2024-01-15T14:49:18;11.45;;;3.00;;
31424;SDS011;18054;51.572;7.372;2024-01-15T14:51:46;9.43;;;2.63;;
31424;SDS011;18054;51.572;7.372;2024-01-15T14:54:15;10.57;;;2.20;;
31424;SDS011;18054;51.572;7.372;2024-01-15T14:56:45;9.52;;;2.08;;
31424;SDS011;18054;51.572;7.372;2024-01-15T14:59:12;8.57;;;2.50;;
31424;SDS011;18054;51.572;7.372;2024-01-15T15:04:09;12.77;;;3.30;;
31424;SDS011;18054;51.572;7.372;2024-01-15T15:06:37;7.75;;;3.25;;
31424;SDS011;18054;51.572;7.372;2024-01-15T15:09:05;7.50;;;3.33;;
31424;SDS011;18054;51.572;7.372;2024-01-15T15:11:36;8.00;;;3.05;;
31424;SDS011;18054;51.572;7.372;2024-01-15T15:14:04;9.27;;;3.83;;
31424;SDS011;18054;51.572;7.372;2024-01-15T15:16:31;5.68;;;3.58;;
31424;SDS011;18054;51.572;7.372;2024-01-15T15:18:59;11.13;;;3.50;;
31424;SDS011;18054;51.572;7.372;2024-01-15T15:21:28;10.25;;;3.75;;
31424;SDS011;18054;51.572;7.372;2024-01-15T15:23:56;8.25;;;3.22;;
31424;SDS011;18054;51.572;7.372;2024-01-15T15:26:23;6.10;;;3.03;;
31424;SDS011;18054;51.572;7.372;2024-01-15T15:31:18;6.63;;;2.97;;
31424;SDS011;18054;51.572;7.372;2024-01-15T15:33:46;12.70;;;3.20;;
31424;SDS011;18054;51.572;7.372;2024-01-15T15:36:14;17.60;;;3.85;;
31424;SDS011;18054;51.572;7.372;2024-01-15T15:38:43;10.93;;;2.80;;
31424;SDS011;18054;51.572;7.372;2024-01-15T15:41:11;7.03;;;2.85;;
31424;SDS011;18054;51.572;7.372;2024-01-15T15:43:38;21.83;;;2.85;;
31424;SDS011;18054;51.572;7.372;2024-01-15T15:46:06;7.63;;;2.55;;
31424;SDS011;18054;51.572;7.372;2024-01-15T15:48:34;16.58;;;2.50;;
31424;SDS011;18054;51.572;7.372;2024-01-15T15:51:02;8.55;;;2.30;;
31424;SDS011;18054;51.572;7.372;2024-01-15T15:58:26;7.72;;;2.65;;
31424;SDS011;18054;51.572;7.372;2024-01-15T16:00:54;7.30;;;1.85;;
31424;SDS011;18054;51.572;7.372;2024-01-15T16:08:18;15.32;;;3.63;;
31424;SDS011;18054;51.572;7.372;2024-01-15T16:10:46;9.27;;;2.03;;
31424;SDS011;18054;51.572;7.372;2024-01-15T16:13:15;8.23;;;2.13;;
31424;SDS011;18054;51.572;7.372;2024-01-15T16:15:44;10.40;;;2.22;;
31424;SDS011;18054;51.572;7.372;2024-01-15T16:18:12;7.35;;;2.35;;
31424;SDS011;18054;51.572;7.372;2024-01-15T16:21:01;10.10;;;1.90;;
31424;SDS011;18054;51.572;7.372;2024-01-15T16:23:49;5.75;;;1.70;;
31424;SDS011;18054;51.572;7.372;2024-01-15T16:26:37;21.55;;;1.95;;
31424;SDS011;18054;51.572;7.372;2024-01-15T16:29:06;6.85;;;2.00;;
31424;SDS011;18054;51.572;7.372;2024-01-15T16:31:36;11.35;;;2.25;;
31424;SDS011;18054;51.572;7.372;2024-01-15T16:34:04;17.48;;;2.50;;
31424;SDS011;18054;51.572;7.372;2024-01-15T16:36:39;6.22;;;2.05;;
31424;SDS011;18054;51.572;7.372;2024-01-15T16:39:07;10.38;;;2.38;;
31424;SDS011;18054;51.572;7.372;2024-01-15T16:41:34;9.90;;;3.35;;
31424;SDS011;18054;51.572;7.372;2024-01-15T16:44:02;10.45;;;2.97;;
31424;SDS011;18054;51.572;7.372;2024-01-15T16:46:30;9.07;;;3.03;;
31424;SDS011;18054;51.572;7.372;2024-01-15T16:49:00;10.38;;;3.35;;
31424;SDS011;18054;51.572;7.372;2024-01-15T16:51:28;12.55;;;3.78;;
31424;SDS011;18054;51.572;7.372;2024-01-15T16:53:56;12.55;;;3.38;;
31424;SDS011;18054;51.572;7.372;2024-01-15T16:56:28;16.55;;;4.07;;
31424;SDS011;18054;51.572;7.372;2024-01-15T16:58:56;8.10;;;3.40;;
31424;SDS011;18054;51.572;7.372;2024-01-15T17:01:24;11.13;;;4.80;;
31424;SDS011;18054;51.572;7.372;2024-01-15T17:06:21;16.20;;;5.07;;
31424;SDS011;18054;51.572;7.372;2024-01-15T17:08:52;8.13;;;3.53;;
31424;SDS011;18054;51.572;7.372;2024-01-15T17:13:47;15.88;;;3.60;;
31424;SDS011;18054;51.572;7.372;2024-01-15T17:16:15;15.25;;;5.35;;